sensor_id;sensor_type;location;lat;lon;timestamp;P1;durP1;ratioP1;P2;durP2;ratioP2
17648;SDS011;8943;51.110;-4.158;2023-10-08T00:01:10;5.10;;;2.67;;
17648;SDS011;8943;51.110;-4.158;2023-10-08T00:03:42;5.67;;;3.00;;
17648;SDS011;8943;51.110;-4.158;2023-10-08T00:06:16;7.70;;;3.13;;
17648;SDS011;8943;51.110;-4.158;2023-10-08T00:08:47;5.37;;;3.50;;
17648;SDS011;8943;51.110;-4.158;2023-10-08T00:11:16;6.00;;;3.20;;
17648;SDS011;8943;51.110;-4.158;2023-10-08T00:13:45;4.20;;;2.60;;
17648;SDS011;8943;51.110;-4.158;2023-10-08T00:16:15;5.83;;;3.33;;
17648;SDS011;8943;51.110;-4.158;2023-10-08T00:18:46;7.70;;;3.10;;
17648;SDS011;8943;51.110;-4.158;2023-10-08T00:21:19;5.77;;;2.73;;
17648;SDS011;8943;51.110;-4.158;2023-10-08T00:23:55;7.83;;;3.33;;
17648;SDS011;8943;51.110;-4.158;2023-10-08T00:26:26;9.07;;;3.03;;
17648;SDS011;8943;51.110;-4.158;2023-10-08T00:28:58;8.63;;;3.07;;
17648;SDS011;8943;51.110;-4.158;2023-10-08T00:31:27;7.57;;;2.80;;
17648;SDS011;8943;51.110;-4.158;2023-10-08T00:34:05;4.90;;;2.67;;
17648;SDS011;8943;51.110;-4.158;2023-10-08T00:36:38;6.23;;;2.73;;
17648;SDS011;8943;51.110;-4.158;2023-10-08T00:39:08;6.47;;;3.50;;
17648;SDS011;8943;51.110;-4.158;2023-10-08T00:41:40;10.33;;;3.33;;
17648;SDS011;8943;51.110;-4.158;2023-10-08T00:44:11;4.90;;;2.70;;
17648;SDS011;8943;51.110;-4.158;2023-10-08T00:46:43;7.70;;;3.10;;
17648;SDS011;8943;51.110;-4.158;2023-10-08T00:49:17;5.77;;;2.60;;
17648;SDS011;8943;51.110;-4.158;2023-10-08T00:51:52;6.47;;;3.00;;
17648;SDS011;8943;51.110;-4.158;2023-10-08T00:54:52;5.30;;;2.73;;
17648;SDS011;8943;51.110;-4.158;2023-10-08T00:57:33;5.50;;;2.67;;
17648;SDS011;8943;51.110;-4.158;2023-10-08T01:00:03;4.77;;;2.57;;
17648;SDS011;8943;51.110;-4.158;2023-10-08T01:02:42;7.73;;;3.33;;
17648;SDS011;8943;51.110;-4.158;2023-10-08T01:05:16;5.23;;;3.20;;
17648;SDS011;8943;51.110;-4.158;2023-10-08T01:07:54;6.83;;;2.93;;
17648;SDS011;8943;51.110;-4.158;2023-10-08T01:10:22;7.30;;;3.10;;
17648;SDS011;8943;51.110;-4.158;2023-10-08T01:12:51;8.83;;;2.77;;
17648;SDS011;8943;51.110;-4.158;2023-10-08T01:15:32;6.30;;;3.07;;
17648;SDS011;8943;51.110;-4.158;2023-10-08T01:18:03;6.53;;;3.07;;
17648;SDS011;8943;51.110;-4.158;2023-10-08T01:20:43;5.43;;;2.77;;
17648;SDS011;8943;51.110;-4.158;2023-10-08T01:23:21;5.37;;;2.80;;
17648;SDS011;8943;51.110;-4.158;2023-10-08T01:25:54;4.57;;;2.80;;
17648;SDS011;8943;51.110;-4.158;2023-10-08T01:28:37;6.60;;;3.10;;
17648;SDS011;8943;51.110;-4.158;2023-10-08T01:31:06;4.20;;;2.60;;
17648;SDS011;8943;51.110;-4.158;2023-10-08T01:33:39;4.83;;;2.83;;
17648;SDS011;8943;51.110;-4.158;2023-10-08T01:36:14;6.40;;;2.87;;
17648;SDS011;8943;51.110;-4.158;2023-10-08T01:38:44;7.40;;;2.70;;
17648;SDS011;8943;51.110;-4.158;2023-10-08T01:41:15;7.50;;;3.30;;
17648;SDS011;8943;51.110;-4.158;2023-10-08T01:43:46;6.43;;;2.80;;
17648;SDS011;8943;51.110;-4.158;2023-10-08T01:46:16;4.97;;;2.40;;
17648;SDS011;8943;51.110;-4.158;2023-10-08T01:48:49;4.57;;;3.10;;
17648;SDS011;8943;51.110;-4.158;2023-10-08T01:51:22;5.10;;;2.67;;
17648;SDS011;8943;51.110;-4.158;2023-10-08T01:54:04;6.40;;;2.90;;
17648;SDS011;8943;51.110;-4.158;2023-10-08T01:56:39;3.97;;;2.97;;
17648;SDS011;8943;51.110;-4.158;2023-10-08T01:59:09;5.80;;;2.63;;
17648;SDS011;8943;51.110;-4.158;2023-10-08T02:01:41;20.03;;;3.87;;
17648;SDS011;8943;51.110;-4.158;2023-10-08T02:04:10;6.70;;;2.90;;
17648;SDS011;8943;51.110;-4.158;2023-10-08T02:06:39;9.77;;;3.17;;
17648;SDS011;8943;51.110;-4.158;2023-10-08T02:09:09;5.87;;;2.43;;
17648;SDS011;8943;51.110;-4.158;2023-10-08T02:11:44;5.03;;;2.70;;
17648;SDS011;8943;51.110;-4.158;2023-10-08T02:14:17;5.93;;;2.93;;
17648;SDS011;8943;51.110;-4.158;2023-10-08T02:16:45;5.83;;;2.80;;
17648;SDS011;8943;51.110;-4.158;2023-10-08T02:19:15;5.27;;;2.80;;
17648;SDS011;8943;51.110;-4.158;2023-10-08T02:21:55;4.67;;;2.50;;
17648;SDS011;8943;51.110;-4.158;2023-10-08T02:24:28;4.03;;;2.40;;
17648;SDS011;8943;51.110;-4.158;2023-10-08T02:26:57;5.23;;;2.77;;
17648;SDS011;8943;51.110;-4.158;2023-10-08T02:29:28;5.27;;;2.70;;
17648;SDS011;8943;51.110;-4.158;2023-10-08T02:31:58;4.40;;;3.00;;
17648;SDS011;8943;51.110;-4.158;2023-10-08T02:34:26;5.93;;;3.10;;
17648;SDS011;8943;51.110;-4.158;2023-10-08T02:36:57;4.60;;;2.93;;
17648;SDS011;8943;51.110;-4.158;2023-10-08T02:39:27;5.90;;;2.90;;
17648;SDS011;8943;51.110;-4.158;2023-10-08T02:41:58;4.93;;;2.87;;
17648;SDS011;8943;51.110;-4.158;2023-10-08T02:44:27;5.93;;;2.70;;
17648;SDS011;8943;51.110;-4.158;2023-10-08T02:46:57;4.17;;;2.30;;
17648;SDS011;8943;51.110;-4.158;2023-10-08T02:49:26;5.00;;;2.97;;
17648;SDS011;8943;51.110;-4.158;2023-10-08T02:51:57;7.37;;;2.70;;
17648;SDS011;8943;51.110;-4.158;2023-10-08T02:54:25;6.43;;;2.97;;
17648;SDS011;8943;51.110;-4.158;2023-10-08T02:57:04;3.10;;;2.47;;
17648;SDS011;8943;51.110;-4.158;2023-10-08T02:59:37;7.20;;;3.17;;
17648;SDS011;8943;51.110;-4.158;2023-10-08T03:02:09;7.70;;;2.67;;
17648;SDS011;8943;51.110;-4.158;2023-10-08T03:04:43;4.97;;;2.70;;
17648;SDS011;8943;51.110;-4.158;2023-10-08T03:07:13;5.73;;;3.20;;
17648;SDS011;8943;51.110;-4.158;2023-10-08T03:09:49;4.80;;;3.07;;
17648;SDS011;8943;51.110;-4.158;2023-10-08T03:12:32;6.70;;;2.97;;
17648;SDS011;8943;51.110;-4.158;2023-10-08T03:15:03;5.03;;;2.80;;
17648;SDS011;8943;51.110;-4.158;2023-10-08T03:17:41;9.90;;;3.00;;
17648;SDS011;8943;51.110;-4.158;2023-10-08T03:20:17;5.37;;;2.93;;
17648;SDS011;8943;51.110;-4.158;2023-10-08T03:23:06;5.50;;;3.13;;
17648;SDS011;8943;51.110;-4.158;2023-10-08T03:25:50;7.03;;;2.90;;
17648;SDS011;8943;51.110;-4.158;2023-10-08T03:28:27;5.70;;;2.57;;
17648;SDS011;8943;51.110;-4.158;2023-10-08T03:30:56;7.13;;;2.77;;
17648;SDS011;8943;51.110;-4.158;2023-10-08T03:33:31;5.00;;;2.80;;
17648;SDS011;8943;51.110;-4.158;2023-10-08T03:36:04;5.17;;;2.87;;
17648;SDS011;8943;51.110;-4.158;2023-10-08T03:38:41;6.73;;;2.27;;
17648;SDS011;8943;51.110;-4.158;2023-10-08T03:41:11;4.83;;;2.37;;
17648;SDS011;8943;51.110;-4.158;2023-10-08T03:43:46;7.20;;;2.53;;
17648;SDS011;8943;51.110;-4.158;2023-10-08T03:46:28;5.63;;;2.70;;
17648;SDS011;8943;51.110;-4.158;2023-10-08T03:48:58;4.00;;;2.60;;
17648;SDS011;8943;51.110;-4.158;2023-10-08T03:51:31;10.47;;;2.77;;
17648;SDS011;8943;51.110;-4.158;2023-10-08T03:54:06;6.17;;;2.90;;
17648;SDS011;8943;51.110;-4.158;2023-10-08T03:56:44;5.60;;;3.00;;
17648;SDS011;8943;51.110;-4.158;2023-10-08T03:59:17;6.27;;;2.80;;
17648;SDS011;8943;51.110;-4.158;2023-10-08T04:01:57;4.90;;;2.97;;
17648;SDS011;8943;51.110;-4.158;2023-10-08T04:04:36;5.80;;;2.80;;
17648;SDS011;8943;51.110;-4.158;2023-10-08T04:07:20;5.07;;;3.03;;
17648;SDS011;8943;51.110;-4.158;2023-10-08T04:09:55;5.37;;;2.80;;
17648;SDS011;8943;51.110;-4.158;2023-10-08T04:12:53;4.43;;;2.73;;
17648;SDS011;8943;51.110;-4.158;2023-10-08T04:15:22;9.50;;;2.60;;
17648;SDS011;8943;51.110;-4.158;2023-10-08T04:17:51;6.70;;;3.13;;
17648;SDS011;8943;51.110;-4.158;2023-10-08T04:20:21;5.50;;;3.00;;
17648;SDS011;8943;51.110;-4.158;2023-10-08T04:23:00;8.23;;;2.93;;
17648;SDS011;8943;51.110;-4.158;2023-10-08T04:25:31;7.80;;;3.23;;
17648;SDS011;8943;51.110;-4.158;2023-10-08T04:28:02;7.37;;;3.20;;
17648;SDS011;8943;51.110;-4.158;2023-10-08T04:30:35;4.57;;;2.73;;
17648;SDS011;8943;51.110;-4.158;2023-10-08T04:33:05;5.70;;;3.07;;
17648;SDS011;8943;51.110;-4.158;2023-10-08T04:35:34;5.90;;;2.87;;
17648;SDS011;8943;51.110;-4.158;2023-10-08T04:38:11;4.23;;;2.70;;
17648;SDS011;8943;51.110;-4.158;2023-10-08T04:40:39;7.43;;;2.87;;
17648;SDS011;8943;51.110;-4.158;2023-10-08T04:43:15;4.97;;;2.90;;
17648;SDS011;8943;51.110;-4.158;2023-10-08T04:45:51;5.20;;;2.60;;
17648;SDS011;8943;51.110;-4.158;2023-10-08T04:48:20;4.70;;;2.83;;
17648;SDS011;8943;51.110;-4.158;2023-10-08T04:50:51;5.63;;;2.70;;
17648;SDS011;8943;51.110;-4.158;2023-10-08T04:53:27;5.83;;;2.63;;
17648;SDS011;8943;51.110;-4.158;2023-10-08T04:56:04;2.80;;;2.00;;
17648;SDS011;8943;51.110;-4.158;2023-10-08T04:58:40;5.83;;;2.43;;
17648;SDS011;8943;51.110;-4.158;2023-10-08T05:01:17;4.33;;;2.60;;
17648;SDS011;8943;51.110;-4.158;2023-10-08T05:03:48;6.40;;;2.77;;
17648;SDS011;8943;51.110;-4.158;2023-10-08T05:06:52;22.87;;;3.97;;
17648;SDS011;8943;51.110;-4.158;2023-10-08T05:09:44;5.97;;;3.83;;
17648;SDS011;8943;51.110;-4.158;2023-10-08T05:12:19;5.23;;;3.07;;
17648;SDS011;8943;51.110;-4.158;2023-10-08T05:15:01;4.30;;;2.87;;
17648;SDS011;8943;51.110;-4.158;2023-10-08T05:17:49;4.20;;;2.73;;
17648;SDS011;8943;51.110;-4.158;2023-10-08T05:20:36;8.63;;;3.27;;
17648;SDS011;8943;51.110;-4.158;2023-10-08T05:23:30;6.47;;;2.53;;
17648;SDS011;8943;51.110;-4.158;2023-10-08T05:26:38;6.43;;;2.90;;
17648;SDS011;8943;51.110;-4.158;2023-10-08T05:29:11;5.57;;;2.90;;
17648;SDS011;8943;51.110;-4.158;2023-10-08T05:32:18;8.10;;;3.00;;
17648;SDS011;8943;51.110;-4.158;2023-10-08T05:35:07;4.63;;;2.80;;
17648;SDS011;8943;51.110;-4.158;2023-10-08T05:37:53;6.33;;;4.10;;
17648;SDS011;8943;51.110;-4.158;2023-10-08T05:40:40;6.80;;;2.57;;
17648;SDS011;8943;51.110;-4.158;2023-10-08T05:43:37;4.97;;;2.43;;
17648;SDS011;8943;51.110;-4.158;2023-10-08T05:46:22;3.53;;;2.60;;
17648;SDS011;8943;51.110;-4.158;2023-10-08T05:49:08;3.63;;;2.37;;
17648;SDS011;8943;51.110;-4.158;2023-10-08T05:52:10;5.40;;;2.43;;
17648;SDS011;8943;51.110;-4.158;2023-10-08T05:54:51;5.70;;;2.67;;
17648;SDS011;8943;51.110;-4.158;2023-10-08T05:57:42;7.60;;;2.60;;
17648;SDS011;8943;51.110;-4.158;2023-10-08T06:00:19;7.47;;;2.63;;
17648;SDS011;8943;51.110;-4.158;2023-10-08T06:03:05;5.80;;;2.67;;
17648;SDS011;8943;51.110;-4.158;2023-10-08T06:05:59;5.13;;;2.80;;
17648;SDS011;8943;51.110;-4.158;2023-10-08T06:08:47;5.50;;;2.30;;
17648;SDS011;8943;51.110;-4.158;2023-10-08T06:12:05;4.93;;;2.60;;
17648;SDS011;8943;51.110;-4.158;2023-10-08T06:14:39;4.37;;;2.23;;
17648;SDS011;8943;51.110;-4.158;2023-10-08T06:17:19;5.63;;;2.60;;
17648;SDS011;8943;51.110;-4.158;2023-10-08T06:20:24;4.43;;;2.30;;
17648;SDS011;8943;51.110;-4.158;2023-10-08T06:22:54;4.63;;;2.43;;
17648;SDS011;8943;51.110;-4.158;2023-10-08T06:25:29;5.07;;;2.50;;
17648;SDS011;8943;51.110;-4.158;2023-10-08T06:28:09;4.50;;;2.23;;
17648;SDS011;8943;51.110;-4.158;2023-10-08T06:30:39;3.43;;;2.17;;
17648;SDS011;8943;51.110;-4.158;2023-10-08T06:33:12;4.30;;;2.20;;
17648;SDS011;8943;51.110;-4.158;2023-10-08T06:35:43;5.53;;;2.70;;
17648;SDS011;8943;51.110;-4.158;2023-10-08T06:38:13;3.83;;;2.30;;
17648;SDS011;8943;51.110;-4.158;2023-10-08T06:40:45;3.43;;;2.27;;
17648;SDS011;8943;51.110;-4.158;2023-10-08T06:43:16;5.27;;;2.77;;
17648;SDS011;8943;51.110;-4.158;2023-10-08T06:45:49;3.80;;;2.17;;
17648;SDS011;8943;51.110;-4.158;2023-10-08T06:48:21;2.93;;;2.17;;
17648;SDS011;8943;51.110;-4.158;2023-10-08T06:50:52;3.97;;;2.00;;
17648;SDS011;8943;51.110;-4.158;2023-10-08T06:53:24;5.70;;;2.70;;
17648;SDS011;8943;51.110;-4.158;2023-10-08T06:55:56;4.63;;;2.30;;
17648;SDS011;8943;51.110;-4.158;2023-10-08T06:58:33;5.90;;;2.27;;
17648;SDS011;8943;51.110;-4.158;2023-10-08T07:01:02;5.40;;;2.70;;
17648;SDS011;8943;51.110;-4.158;2023-10-08T07:03:35;5.97;;;3.23;;
17648;SDS011;8943;51.110;-4.158;2023-10-08T07:06:06;5.30;;;2.37;;
17648;SDS011;8943;51.110;-4.158;2023-10-08T07:08:52;3.17;;;2.27;;
17648;SDS011;8943;51.110;-4.158;2023-10-08T07:11:22;3.93;;;2.37;;
17648;SDS011;8943;51.110;-4.158;2023-10-08T07:13:52;2.97;;;2.27;;
17648;SDS011;8943;51.110;-4.158;2023-10-08T07:16:21;5.33;;;2.27;;
17648;SDS011;8943;51.110;-4.158;2023-10-08T07:18:50;8.90;;;2.50;;
17648;SDS011;8943;51.110;-4.158;2023-10-08T07:21:19;3.27;;;2.13;;
17648;SDS011;8943;51.110;-4.158;2023-10-08T07:23:55;2.73;;;2.00;;
17648;SDS011;8943;51.110;-4.158;2023-10-08T07:26:26;3.53;;;2.30;;
17648;SDS011;8943;51.110;-4.158;2023-10-08T07:29:06;4.47;;;2.37;;
17648;SDS011;8943;51.110;-4.158;2023-10-08T07:31:36;3.33;;;2.20;;
17648;SDS011;8943;51.110;-4.158;2023-10-08T07:34:08;5.13;;;2.00;;
17648;SDS011;8943;51.110;-4.158;2023-10-08T07:36:52;3.43;;;2.40;;
17648;SDS011;8943;51.110;-4.158;2023-10-08T07:39:22;3.20;;;1.90;;
17648;SDS011;8943;51.110;-4.158;2023-10-08T07:42:03;4.47;;;2.20;;
17648;SDS011;8943;51.110;-4.158;2023-10-08T07:44:38;6.33;;;2.60;;
17648;SDS011;8943;51.110;-4.158;2023-10-08T07:47:07;3.70;;;2.20;;
17648;SDS011;8943;51.110;-4.158;2023-10-08T07:49:39;4.80;;;2.20;;
17648;SDS011;8943;51.110;-4.158;2023-10-08T07:52:10;3.73;;;2.23;;
17648;SDS011;8943;51.110;-4.158;2023-10-08T07:54:43;5.10;;;1.97;;
17648;SDS011;8943;51.110;-4.158;2023-10-08T07:57:11;5.47;;;2.60;;
17648;SDS011;8943;51.110;-4.158;2023-10-08T07:59:46;8.50;;;2.57;;
17648;SDS011;8943;51.110;-4.158;2023-10-08T08:02:22;4.13;;;2.37;;
17648;SDS011;8943;51.110;-4.158;2023-10-08T08:04:53;4.17;;;2.27;;
17648;SDS011;8943;51.110;-4.158;2023-10-08T08:07:22;4.90;;;2.40;;
17648;SDS011;8943;51.110;-4.158;2023-10-08T08:09:52;3.43;;;2.30;;
17648;SDS011;8943;51.110;-4.158;2023-10-08T08:12:26;2.60;;;2.20;;
17648;SDS011;8943;51.110;-4.158;2023-10-08T08:15:01;5.17;;;2.40;;
17648;SDS011;8943;51.110;-4.158;2023-10-08T08:17:41;3.40;;;2.23;;
17648;SDS011;8943;51.110;-4.158;2023-10-08T08:20:10;4.00;;;2.47;;
17648;SDS011;8943;51.110;-4.158;2023-10-08T08:22:45;6.00;;;2.20;;
17648;SDS011;8943;51.110;-4.158;2023-10-08T08:25:16;4.60;;;2.20;;
17648;SDS011;8943;51.110;-4.158;2023-10-08T08:28:01;3.37;;;2.20;;
17648;SDS011;8943;51.110;-4.158;2023-10-08T08:30:35;3.83;;;2.40;;
17648;SDS011;8943;51.110;-4.158;2023-10-08T08:33:06;5.23;;;2.77;;
17648;SDS011;8943;51.110;-4.158;2023-10-08T08:35:38;4.60;;;2.20;;
17648;SDS011;8943;51.110;-4.158;2023-10-08T08:38:06;5.07;;;2.70;;
17648;SDS011;8943;51.110;-4.158;2023-10-08T08:40:35;3.60;;;2.00;;
17648;SDS011;8943;51.110;-4.158;2023-10-08T08:43:04;4.37;;;2.33;;
17648;SDS011;8943;51.110;-4.158;2023-10-08T08:45:34;4.60;;;2.57;;
17648;SDS011;8943;51.110;-4.158;2023-10-08T08:48:07;7.57;;;3.10;;
17648;SDS011;8943;51.110;-4.158;2023-10-08T08:50:35;3.60;;;2.43;;
17648;SDS011;8943;51.110;-4.158;2023-10-08T08:53:05;3.53;;;2.40;;
17648;SDS011;8943;51.110;-4.158;2023-10-08T08:55:33;3.50;;;2.60;;
17648;SDS011;8943;51.110;-4.158;2023-10-08T08:58:05;3.63;;;2.20;;
17648;SDS011;8943;51.110;-4.158;2023-10-08T09:00:39;3.23;;;2.50;;
17648;SDS011;8943;51.110;-4.158;2023-10-08T09:03:09;7.53;;;2.70;;
17648;SDS011;8943;51.110;-4.158;2023-10-08T09:05:40;5.57;;;2.73;;
17648;SDS011;8943;51.110;-4.158;2023-10-08T09:08:09;3.60;;;2.40;;
17648;SDS011;8943;51.110;-4.158;2023-10-08T09:10:38;7.33;;;2.80;;
17648;SDS011;8943;51.110;-4.158;2023-10-08T09:13:19;5.10;;;2.43;;
17648;SDS011;8943;51.110;-4.158;2023-10-08T09:15:51;4.37;;;2.80;;
17648;SDS011;8943;51.110;-4.158;2023-10-08T09:18:22;5.23;;;2.73;;
17648;SDS011;8943;51.110;-4.158;2023-10-08T09:20:54;5.40;;;2.70;;
17648;SDS011;8943;51.110;-4.158;2023-10-08T09:23:23;3.03;;;1.97;;
17648;SDS011;8943;51.110;-4.158;2023-10-08T09:25:52;4.27;;;2.33;;
17648;SDS011;8943;51.110;-4.158;2023-10-08T09:28:32;4.67;;;2.03;;
17648;SDS011;8943;51.110;-4.158;2023-10-08T09:31:06;3.43;;;2.20;;
17648;SDS011;8943;51.110;-4.158;2023-10-08T09:33:38;3.07;;;2.10;;
17648;SDS011;8943;51.110;-4.158;2023-10-08T09:36:08;3.10;;;1.97;;
17648;SDS011;8943;51.110;-4.158;2023-10-08T09:38:45;3.60;;;2.23;;
17648;SDS011;8943;51.110;-4.158;2023-10-08T09:41:17;6.70;;;2.30;;
17648;SDS011;8943;51.110;-4.158;2023-10-08T09:44:05;5.33;;;2.70;;
17648;SDS011;8943;51.110;-4.158;2023-10-08T09:46:40;6.73;;;2.33;;
17648;SDS011;8943;51.110;-4.158;2023-10-08T09:49:13;5.37;;;2.60;;
17648;SDS011;8943;51.110;-4.158;2023-10-08T09:51:45;5.53;;;2.50;;
17648;SDS011;8943;51.110;-4.158;2023-10-08T09:54:15;7.67;;;2.60;;
17648;SDS011;8943;51.110;-4.158;2023-10-08T09:56:48;3.97;;;2.63;;
17648;SDS011;8943;51.110;-4.158;2023-10-08T09:59:33;5.53;;;3.10;;
17648;SDS011;8943;51.110;-4.158;2023-10-08T10:02:04;7.10;;;2.87;;
17648;SDS011;8943;51.110;-4.158;2023-10-08T10:04:39;5.13;;;2.23;;
17648;SDS011;8943;51.110;-4.158;2023-10-08T10:07:11;4.30;;;3.10;;
17648;SDS011;8943;51.110;-4.158;2023-10-08T10:09:44;4.73;;;2.50;;
17648;SDS011;8943;51.110;-4.158;2023-10-08T10:12:17;4.07;;;2.50;;
17648;SDS011;8943;51.110;-4.158;2023-10-08T10:14:52;3.80;;;2.20;;
17648;SDS011;8943;51.110;-4.158;2023-10-08T10:17:24;4.77;;;2.67;;
17648;SDS011;8943;51.110;-4.158;2023-10-08T10:20:10;4.07;;;2.80;;
17648;SDS011;8943;51.110;-4.158;2023-10-08T10:22:42;4.07;;;2.90;;
17648;SDS011;8943;51.110;-4.158;2023-10-08T10:25:15;5.13;;;2.47;;
17648;SDS011;8943;51.110;-4.158;2023-10-08T10:30:50;4.90;;;2.77;;
17648;SDS011;8943;51.110;-4.158;2023-10-08T10:33:20;5.00;;;3.00;;
17648;SDS011;8943;51.110;-4.158;2023-10-08T10:35:53;6.13;;;2.60;;
17648;SDS011;8943;51.110;-4.158;2023-10-08T10:38:22;5.20;;;3.03;;
17648;SDS011;8943;51.110;-4.158;2023-10-08T10:40:53;10.13;;;3.27;;
17648;SDS011;8943;51.110;-4.158;2023-10-08T10:43:26;5.27;;;3.10;;
17648;SDS011;8943;51.110;-4.158;2023-10-08T10:46:00;5.53;;;3.20;;
17648;SDS011;8943;51.110;-4.158;2023-10-08T10:48:54;4.40;;;2.90;;
17648;SDS011;8943;51.110;-4.158;2023-10-08T10:51:33;4.87;;;3.23;;
17648;SDS011;8943;51.110;-4.158;2023-10-08T10:54:01;5.37;;;2.90;;
17648;SDS011;8943;51.110;-4.158;2023-10-08T10:56:36;4.90;;;2.73;;
17648;SDS011;8943;51.110;-4.158;2023-10-08T10:59:09;5.20;;;2.93;;
17648;SDS011;8943;51.110;-4.158;2023-10-08T11:01:47;6.97;;;2.87;;
17648;SDS011;8943;51.110;-4.158;2023-10-08T11:04:22;5.37;;;2.77;;
17648;SDS011;8943;51.110;-4.158;2023-10-08T11:06:56;6.73;;;3.37;;
17648;SDS011;8943;51.110;-4.158;2023-10-08T11:09:27;7.67;;;3.80;;
17648;SDS011;8943;51.110;-4.158;2023-10-08T11:12:06;27.93;;;17.00;;
17648;SDS011;8943;51.110;-4.158;2023-10-08T11:14:38;18.47;;;12.13;;
17648;SDS011;8943;51.110;-4.158;2023-10-08T11:17:10;20.57;;;12.43;;
17648;SDS011;8943;51.110;-4.158;2023-10-08T11:19:40;21.00;;;14.97;;
17648;SDS011;8943;51.110;-4.158;2023-10-08T11:22:13;19.13;;;11.70;;
17648;SDS011;8943;51.110;-4.158;2023-10-08T11:24:44;20.83;;;12.97;;
17648;SDS011;8943;51.110;-4.158;2023-10-08T11:27:16;10.07;;;6.43;;
17648;SDS011;8943;51.110;-4.158;2023-10-08T11:29:56;6.10;;;3.20;;
17648;SDS011;8943;51.110;-4.158;2023-10-08T11:32:27;6.00;;;3.20;;
17648;SDS011;8943;51.110;-4.158;2023-10-08T11:35:01;4.40;;;3.17;;
17648;SDS011;8943;51.110;-4.158;2023-10-08T11:37:45;5.20;;;2.87;;
17648;SDS011;8943;51.110;-4.158;2023-10-08T11:40:23;5.20;;;2.70;;
17648;SDS011;8943;51.110;-4.158;2023-10-08T11:42:56;4.13;;;2.60;;
17648;SDS011;8943;51.110;-4.158;2023-10-08T11:45:25;6.27;;;2.47;;
17648;SDS011;8943;51.110;-4.158;2023-10-08T11:47:54;5.57;;;2.70;;
17648;SDS011;8943;51.110;-4.158;2023-10-08T11:50:31;3.67;;;2.47;;
17648;SDS011;8943;51.110;-4.158;2023-10-08T11:53:02;5.13;;;2.40;;
17648;SDS011;8943;51.110;-4.158;2023-10-08T11:55:32;4.50;;;2.70;;
17648;SDS011;8943;51.110;-4.158;2023-10-08T11:58:03;6.17;;;2.40;;
17648;SDS011;8943;51.110;-4.158;2023-10-08T12:00:39;2.83;;;2.30;;
17648;SDS011;8943;51.110;-4.158;2023-10-08T12:03:13;3.40;;;2.10;;
17648;SDS011;8943;51.110;-4.158;2023-10-08T12:05:48;4.23;;;2.27;;
17648;SDS011;8943;51.110;-4.158;2023-10-08T12:08:25;4.30;;;2.43;;
17648;SDS011;8943;51.110;-4.158;2023-10-08T12:10:54;5.73;;;2.50;;
17648;SDS011;8943;51.110;-4.158;2023-10-08T12:13:23;4.20;;;2.40;;
17648;SDS011;8943;51.110;-4.158;2023-10-08T12:15:52;3.87;;;2.17;;
17648;SDS011;8943;51.110;-4.158;2023-10-08T12:18:32;3.57;;;2.17;;
17648;SDS011;8943;51.110;-4.158;2023-10-08T12:21:08;3.30;;;2.23;;
17648;SDS011;8943;51.110;-4.158;2023-10-08T12:23:39;3.00;;;2.10;;
17648;SDS011;8943;51.110;-4.158;2023-10-08T12:26:07;4.57;;;2.17;;
17648;SDS011;8943;51.110;-4.158;2023-10-08T12:28:36;2.93;;;1.90;;
17648;SDS011;8943;51.110;-4.158;2023-10-08T12:31:04;5.17;;;2.43;;
17648;SDS011;8943;51.110;-4.158;2023-10-08T12:33:33;3.23;;;2.20;;
17648;SDS011;8943;51.110;-4.158;2023-10-08T12:36:01;4.33;;;2.07;;
17648;SDS011;8943;51.110;-4.158;2023-10-08T12:38:40;2.70;;;2.07;;
17648;SDS011;8943;51.110;-4.158;2023-10-08T12:41:09;3.70;;;2.10;;
17648;SDS011;8943;51.110;-4.158;2023-10-08T12:43:40;4.97;;;2.10;;
17648;SDS011;8943;51.110;-4.158;2023-10-08T12:46:12;5.27;;;2.10;;
17648;SDS011;8943;51.110;-4.158;2023-10-08T12:48:51;4.03;;;2.13;;
17648;SDS011;8943;51.110;-4.158;2023-10-08T12:51:22;2.70;;;2.13;;
17648;SDS011;8943;51.110;-4.158;2023-10-08T12:53:53;4.33;;;2.10;;
17648;SDS011;8943;51.110;-4.158;2023-10-08T12:56:33;5.43;;;2.13;;
17648;SDS011;8943;51.110;-4.158;2023-10-08T12:59:12;3.10;;;2.20;;
17648;SDS011;8943;51.110;-4.158;2023-10-08T13:01:47;3.80;;;2.07;;
17648;SDS011;8943;51.110;-4.158;2023-10-08T13:04:18;4.10;;;2.00;;
17648;SDS011;8943;51.110;-4.158;2023-10-08T13:06:55;5.37;;;2.50;;
17648;SDS011;8943;51.110;-4.158;2023-10-08T13:09:42;4.83;;;2.23;;
17648;SDS011;8943;51.110;-4.158;2023-10-08T13:12:10;5.40;;;2.57;;
17648;SDS011;8943;51.110;-4.158;2023-10-08T13:14:41;4.05;;;2.13;;
17648;SDS011;8943;51.110;-4.158;2023-10-08T13:17:11;3.47;;;1.93;;
17648;SDS011;8943;51.110;-4.158;2023-10-08T13:19:39;5.57;;;2.27;;
17648;SDS011;8943;51.110;-4.158;2023-10-08T13:22:07;3.57;;;2.20;;
17648;SDS011;8943;51.110;-4.158;2023-10-08T13:24:36;3.13;;;1.87;;
17648;SDS011;8943;51.110;-4.158;2023-10-08T13:27:07;3.33;;;2.00;;
17648;SDS011;8943;51.110;-4.158;2023-10-08T13:29:35;3.93;;;2.00;;
17648;SDS011;8943;51.110;-4.158;2023-10-08T13:32:04;2.92;;;1.67;;
17648;SDS011;8943;51.110;-4.158;2023-10-08T13:34:32;3.43;;;2.13;;
17648;SDS011;8943;51.110;-4.158;2023-10-08T13:37:00;6.73;;;3.00;;
17648;SDS011;8943;51.110;-4.158;2023-10-08T13:39:28;3.63;;;2.27;;
17648;SDS011;8943;51.110;-4.158;2023-10-08T13:41:57;3.97;;;2.00;;
17648;SDS011;8943;51.110;-4.158;2023-10-08T13:44:29;3.47;;;2.03;;
17648;SDS011;8943;51.110;-4.158;2023-10-08T13:46:57;7.80;;;2.13;;
17648;SDS011;8943;51.110;-4.158;2023-10-08T13:49:32;4.28;;;2.20;;
17648;SDS011;8943;51.110;-4.158;2023-10-08T13:52:01;3.10;;;2.00;;
17648;SDS011;8943;51.110;-4.158;2023-10-08T13:54:30;4.63;;;2.03;;
17648;SDS011;8943;51.110;-4.158;2023-10-08T13:57:02;1.95;;;1.35;;
17648;SDS011;8943;51.110;-4.158;2023-10-08T13:59:31;5.75;;;2.20;;
17648;SDS011;8943;51.110;-4.158;2023-10-08T14:02:00;2.55;;;1.63;;
17648;SDS011;8943;51.110;-4.158;2023-10-08T14:04:41;4.57;;;2.22;;
17648;SDS011;8943;51.110;-4.158;2023-10-08T14:07:11;2.90;;;1.70;;
17648;SDS011;8943;51.110;-4.158;2023-10-08T14:09:44;4.30;;;2.17;;
17648;SDS011;8943;51.110;-4.158;2023-10-08T14:12:14;4.03;;;1.80;;
17648;SDS011;8943;51.110;-4.158;2023-10-08T14:14:44;3.78;;;1.70;;
17648;SDS011;8943;51.110;-4.158;2023-10-08T14:17:14;2.85;;;1.88;;
17648;SDS011;8943;51.110;-4.158;2023-10-08T14:20:03;6.18;;;5.57;;
17648;SDS011;8943;51.110;-4.158;2023-10-08T14:22:39;4.35;;;2.35;;
17648;SDS011;8943;51.110;-4.158;2023-10-08T14:25:08;2.85;;;1.83;;
17648;SDS011;8943;51.110;-4.158;2023-10-08T14:27:38;4.68;;;2.80;;
17648;SDS011;8943;51.110;-4.158;2023-10-08T14:30:09;2.40;;;1.67;;
17648;SDS011;8943;51.110;-4.158;2023-10-08T14:32:42;2.17;;;1.60;;
17648;SDS011;8943;51.110;-4.158;2023-10-08T14:35:12;2.80;;;2.15;;
17648;SDS011;8943;51.110;-4.158;2023-10-08T14:37:58;2.63;;;1.80;;
17648;SDS011;8943;51.110;-4.158;2023-10-08T14:40:44;3.38;;;1.80;;
17648;SDS011;8943;51.110;-4.158;2023-10-08T14:43:30;3.00;;;1.80;;
17648;SDS011;8943;51.110;-4.158;2023-10-08T14:46:02;3.40;;;1.65;;
17648;SDS011;8943;51.110;-4.158;2023-10-08T14:48:33;4.28;;;1.80;;
17648;SDS011;8943;51.110;-4.158;2023-10-08T14:51:07;2.95;;;1.63;;
17648;SDS011;8943;51.110;-4.158;2023-10-08T14:53:46;2.42;;;1.73;;
17648;SDS011;8943;51.110;-4.158;2023-10-08T14:56:14;3.20;;;1.80;;
17648;SDS011;8943;51.110;-4.158;2023-10-08T14:58:45;2.30;;;1.58;;
17648;SDS011;8943;51.110;-4.158;2023-10-08T15:01:15;3.47;;;1.75;;
17648;SDS011;8943;51.110;-4.158;2023-10-08T15:03:44;2.40;;;1.60;;
17648;SDS011;8943;51.110;-4.158;2023-10-08T15:06:13;2.40;;;1.90;;
17648;SDS011;8943;51.110;-4.158;2023-10-08T15:08:41;1.80;;;1.30;;
17648;SDS011;8943;51.110;-4.158;2023-10-08T15:11:10;2.78;;;1.70;;
17648;SDS011;8943;51.110;-4.158;2023-10-08T15:13:38;3.80;;;1.88;;
17648;SDS011;8943;51.110;-4.158;2023-10-08T15:16:07;3.90;;;1.85;;
17648;SDS011;8943;51.110;-4.158;2023-10-08T15:18:36;2.38;;;1.52;;
17648;SDS011;8943;51.110;-4.158;2023-10-08T15:21:09;3.90;;;1.88;;
17648;SDS011;8943;51.110;-4.158;2023-10-08T15:23:38;2.42;;;2.08;;
17648;SDS011;8943;51.110;-4.158;2023-10-08T15:26:06;2.97;;;1.90;;
17648;SDS011;8943;51.110;-4.158;2023-10-08T15:28:35;3.65;;;2.08;;
17648;SDS011;8943;51.110;-4.158;2023-10-08T15:31:03;2.10;;;1.77;;
17648;SDS011;8943;51.110;-4.158;2023-10-08T15:33:31;4.90;;;2.90;;